KGGG/GGG METAR and TAF weather

Enter ICAO airport designator
Station Type Date Time Source
KGGG METAR 2019/02/23 00:00 UTC NOAA

KGGG 230000Z 09003KT 3/4SM R13/P6000FT BR OVC002 11/11 A2992 RMK AO2 LTG DSNT NW T01060106


Station Type Date Time Source
KGGG Decoded METAR 2019/02/23 00:00 UTC NOAA

LONGVIEW GREGG COUNTY AIRPORT , TX, United States (KGGG) 32-23N 094-43W 107M
Feb 22, 2019 - 07:00 PM EST / 2019.02.23 0000 UTC
Wind: from the E (090 degrees) at 3 MPH (3 KT):0
Visibility: 3/4 mile(s):0
Sky conditions: overcast
Weather: mist; Lightning observed
Temperature: 51.1 F (10.6 C)
Dew Point: 51.1 F (10.6 C)
Relative Humidity: 100%
Pressure (altimeter): 29.92 in. Hg (1013 hPa)
ob: KGGG 230000Z 09003KT 3/4SM R13/P6000FT BR OVC002 11/11 A2992 RMK AO2 LTG DSNT NW T01060106
cycle: 0

Station Type Date Time Source
KGGG TAF 2019/02/22 23:34 UTC NOAA

TAF
AMD KGGG 222232Z 2223/2318 07006KT 2SM BR VCSH OVC004
FM230000 09007KT 6SM BR VCSH OVC004
FM230600 15006KT 2SM BR OVC004
FM231300 21014G22KT 4SM TSRA OVC010CB


Example: see airport list